Banlista A kitiltottak listája

1

# Nickname SteamID Készült Hossz Lejár Indok Admin
6251 d 0 m i =DD STEAM_1:1:97103267 2015. 12. 2. 18:55 30 min 2015. 12. 2. 19:25 Team Killing Törölt Admin
6252 Jim Tom STEAM_1:0:64814673 2015. 12. 2. 18:53 30 min 2015. 12. 2. 19:23 Team Killing Törölt Admin
6253 Jeff Waldroup STEAM_1:0:74782361 2015. 12. 2. 18:52 30 min 2015. 12. 2. 19:22 Team Killing Törölt Admin
6254 iLLusion__brI7 STEAM_1:0:73191961 2015. 9. 22. 17:14 1 d 2015. 9. 23. 17:14 Team Stacking Törölt Admin
6255 LC'D4C3R STEAM_1:0:79542305 2015. 9. 22. 16:44 1 d 2015. 9. 23. 16:44 Team Stacking Törölt Admin
6256 dnK STEAM_1:1:119200711 2015. 9. 22. 16:39 1 d 2015. 9. 23. 16:39 Team Stacking Törölt Admin
6257 TubeDog STEAM_1:1:117437427 2015. 9. 21. 22:02 1 min 2015. 9. 21. 22:03 recsk Törölt Admin
6258 TubeDog STEAM_1:1:117437427 2015. 9. 21. 22:02 1 min 2015. 9. 21. 22:03 recsk Törölt Admin
6259 TubeDog STEAM_1:1:117437427 2015. 9. 21. 22:02 1 min 2015. 9. 21. 22:03 RECSK Törölt Admin
6260 TubeDog STEAM_1:1:117437427 2015. 9. 21. 22:02 1 min 2015. 9. 21. 22:03 RECSK Törölt Admin
6261 Jim Tom STEAM_1:0:64814673 2015. 9. 21. 20:20 1 d 2015. 9. 22. 20:20 TK CONSOLE
6262 Szotyi Man STEAM_1:0:99942363 2015. 9. 21. 18:01 1 hr 2015. 9. 21. 19:01 Team Killing Törölt Admin
6263 "HAXLOL" | csgorage.com STEAM_1:0:92556428 2015. 9. 18. 14:41 1 hr 2015. 9. 18. 15:41 Inappropriate Spray [Assassin:Kuma]
6264 rmL STEAM_1:1:126992857 2015. 9. 17. 15:24 4 hr 2015. 9. 17. 19:24 Team Killing [Assassin:Kuma]
6265 Drazsé STEAM_1:1:119200711 2015. 9. 16. 16:11 1 d 2015. 9. 17. 16:11 Spamming Mic/Chat [Assassin:Kuma]
6266 Greg STEAM_1:1:52354591 2015. 9. 16. 13:48 1 d 2015. 9. 17. 13:48 Inappropriate Spray [Assassin:Kuma]
6267 Danesz_HUN_ STEAM_1:1:105518536 2015. 9. 16. 13:39 1 min 2015. 9. 16. 13:40 Aimbot [Assassin:Kuma]
6268 §Charlie§ STEAM_1:0:70617868 2015. 9. 16. 13:33 1 d 2015. 9. 17. 13:33 Inappropriate Spray [Assassin:Kuma]
6269 M!$T3R!0 STEAM_1:1:120866107 2015. 9. 16. 13:05 4 hr 2015. 9. 16. 17:05 Team Killing [Assassin:Kuma]
6270 [Ŧecó]Mя.کωεD STEAM_1:0:136256914 2015. 9. 16. 10:26 1 d 2015. 9. 17. 10:26 Team Stacking Törölt Admin
6271 Joker STEAM_1:1:52463524 2015. 9. 16. 9:56 45 min 2015. 9. 16. 10:41 Gamevoting (Reason: Vote: Trolling., votecaller: ♕ SpeedFighter931(HUN) ♕) CONSOLE
6272 n0skill STEAM_1:1:84770204 2015. 9. 15. 21:08 1 d 2015. 9. 16. 21:08 Reconnect Törölt Admin
6273 Krisztián STEAM_1:0:93624509 2015. 9. 15. 17:35 10 min 2015. 9. 15. 17:45 hirdetes xd Törölt Admin
6274 snowblind♕ STEAM_1:0:132803140 2015. 9. 15. 17:05 2 wk 2015. 9. 29. 17:05 NINCSEN UB! Törölt Admin
6275 cukoj :3 STEAM_1:0:80455346 2015. 9. 15. 11:28 10 min 2015. 9. 15. 11:38 Team Killing Törölt Admin